Time,TemperatureF,DewpointF,PressureIn,WindDirection,WindDirectionDegrees,WindSpeedMPH,WindSpeedGustMPH,Humidity,HourlyPrecipIn,Conditions,Clouds,dailyrainin,SolarRadiationWatts/m^2,SoftwareType,DateUTC
2013-11-19 00:02:00,39.0,27.0,-100.00,North,0,1.0,5.0,61,0.00,,,0.00,0.000000,,2013-11-19 05:02:00,
2013-11-19 00:43:00,37.0,26.0,-100.00,NE,36,1.0,6.0,64,0.00,,,0.00,0.000000,,2013-11-19 05:43:00,
2013-11-19 00:53:00,37.0,26.0,-100.00,NE,36,1.0,6.0,64,0.00,,,0.00,0.000000,,2013-11-19 05:53:00,
2013-11-19 01:02:00,37.0,26.0,-100.00,NE,36,1.0,6.0,64,0.00,,,0.00,0.000000,,2013-11-19 06:02:00,
2013-11-19 01:42:00,36.0,24.0,-100.00,NE,35,3.0,10.0,62,0.00,,,0.00,0.000000,,2013-11-19 06:42:00,
2013-11-19 01:52:00,36.0,24.0,-100.00,NE,35,3.0,10.0,62,0.00,,,0.00,0.000000,,2013-11-19 06:52:00,
2013-11-19 02:01:00,36.0,24.0,-100.00,NE,35,3.0,10.0,62,0.00,,,0.00,0.000000,,2013-11-19 07:01:00,
2013-11-19 02:42:00,35.0,24.0,-100.00,North,11,2.0,7.0,65,0.00,,,0.00,0.000000,,2013-11-19 07:42:00,
2013-11-19 02:52:00,35.0,24.0,-100.00,North,11,2.0,7.0,65,0.00,,,0.00,0.000000,,2013-11-19 07:52:00,
2013-11-19 03:01:00,35.0,24.0,-100.00,North,11,2.0,7.0,65,0.00,,,0.00,0.000000,,2013-11-19 08:01:00,
2013-11-19 03:42:00,34.0,25.0,-100.00,NE,37,1.0,5.0,69,0.00,,,0.00,0.000000,,2013-11-19 08:42:00,
2013-11-19 03:52:00,34.0,25.0,-100.00,NE,37,1.0,5.0,69,0.00,,,0.00,0.000000,,2013-11-19 08:52:00,
2013-11-19 04:02:00,34.0,25.0,-100.00,NE,37,1.0,5.0,69,0.00,,,0.00,0.000000,,2013-11-19 09:02:00,
2013-11-19 04:43:00,32.0,25.0,-100.00,NNW,333,1.0,5.0,74,0.00,,,0.00,0.000000,,2013-11-19 09:43:00,
2013-11-19 04:53:00,32.0,25.0,-100.00,NNW,333,1.0,5.0,74,0.00,,,0.00,0.000000,,2013-11-19 09:53:00,
2013-11-19 05:03:00,32.0,25.0,-100.00,NNW,333,1.0,5.0,74,0.00,,,0.00,0.000000,,2013-11-19 10:03:00,
2013-11-19 05:43:00,31.0,25.0,-100.00,NNE,20,2.0,5.0,79,0.00,,,0.00,0.000000,,2013-11-19 10:43:00,
2013-11-19 05:53:00,31.0,25.0,-100.00,NNE,20,2.0,5.0,79,0.00,,,0.00,0.000000,,2013-11-19 10:53:00,
2013-11-19 06:02:00,31.0,25.0,-100.00,NNE,20,2.0,5.0,79,0.00,,,0.00,0.000000,,2013-11-19 11:02:00,
2013-11-19 06:42:00,31.0,26.0,-100.00,NE,48,3.0,7.0,80,0.00,,,0.00,0.000000,,2013-11-19 11:42:00,
2013-11-19 06:52:00,31.0,26.0,-100.00,NE,48,3.0,7.0,80,0.00,,,0.00,0.000000,,2013-11-19 11:52:00,
2013-11-19 07:02:00,31.0,26.0,-100.00,NE,48,3.0,7.0,80,0.00,,,0.00,0.000000,,2013-11-19 12:02:00,
2013-11-19 08:42:00,30.0,25.0,-100.00,ENE,61,2.0,8.0,81,-99.99,,,0.00,11.000000,,2013-11-19 13:42:00,
2013-11-19 08:52:00,30.0,25.0,-100.00,ENE,61,2.0,8.0,81,-99.99,,,0.00,11.000000,,2013-11-19 13:52:00,
2013-11-19 09:02:00,30.0,25.0,-100.00,ENE,61,2.0,8.0,81,-99.99,,,0.00,11.000000,,2013-11-19 14:02:00,
2013-11-19 09:42:00,34.0,26.0,-100.00,ENE,70,4.0,8.0,72,0.00,,,0.00,144.000000,,2013-11-19 14:42:00,
2013-11-19 09:52:00,34.0,26.0,-100.00,ENE,70,4.0,8.0,72,0.00,,,0.00,144.000000,,2013-11-19 14:52:00,
2013-11-19 10:01:00,34.0,26.0,-100.00,ENE,70,4.0,8.0,72,0.00,,,0.00,144.000000,,2013-11-19 15:01:00,
2013-11-19 10:43:00,35.0,27.0,-100.00,East,87,4.0,11.0,73,0.00,,,0.00,243.000000,,2013-11-19 15:43:00,
2013-11-19 10:54:00,35.0,27.0,-100.00,East,87,4.0,11.0,73,0.00,,,0.00,243.000000,,2013-11-19 15:54:00,
2013-11-19 11:04:00,35.0,27.0,-100.00,East,87,4.0,11.0,73,0.00,,,0.00,243.000000,,2013-11-19 16:04:00,
2013-11-19 11:43:00,40.0,28.0,-100.00,ESE,114,4.0,11.0,63,0.00,,,0.00,329.000000,,2013-11-19 16:43:00,
2013-11-19 11:52:00,40.0,28.0,-100.00,ESE,114,4.0,11.0,63,0.00,,,0.00,329.000000,,2013-11-19 16:52:00,
2013-11-19 12:02:00,40.0,28.0,-100.00,ESE,114,4.0,11.0,63,0.00,,,0.00,329.000000,,2013-11-19 17:02:00,
2013-11-19 12:43:00,40.0,27.0,-100.00,East,83,4.0,13.0,59,0.00,,,-99.99,463.000000,,2013-11-19 17:43:00,
2013-11-19 12:52:00,40.0,27.0,-100.00,East,83,4.0,13.0,59,0.00,,,-99.99,463.000000,,2013-11-19 17:52:00,
2013-11-19 13:02:00,40.0,27.0,-100.00,East,83,4.0,13.0,59,0.00,,,-99.99,463.000000,,2013-11-19 18:02:00,
2013-11-19 13:42:00,42.0,27.0,-100.00,ENE,63,4.0,10.0,55,0.00,,,0.00,354.000000,,2013-11-19 18:42:00,
2013-11-19 13:52:00,42.0,27.0,-100.00,ENE,63,4.0,10.0,55,0.00,,,0.00,354.000000,,2013-11-19 18:52:00,
2013-11-19 14:01:00,42.0,27.0,-100.00,ENE,63,4.0,10.0,55,0.00,,,0.00,354.000000,,2013-11-19 19:01:00,
2013-11-19 14:42:00,42.0,27.0,-100.00,ENE,68,4.0,10.0,54,0.00,,,0.00,399.000000,,2013-11-19 19:42:00,
2013-11-19 14:52:00,42.0,27.0,-100.00,ENE,68,4.0,10.0,54,0.00,,,0.00,399.000000,,2013-11-19 19:52:00,
2013-11-19 15:02:00,42.0,27.0,-100.00,ENE,68,4.0,10.0,54,0.00,,,0.00,399.000000,,2013-11-19 20:02:00,
2013-11-19 15:42:00,42.0,27.0,-100.00,ENE,57,4.0,9.0,55,0.00,,,0.00,219.000000,,2013-11-19 20:42:00,
2013-11-19 15:52:00,42.0,27.0,-100.00,ENE,57,4.0,9.0,55,0.00,,,0.00,219.000000,,2013-11-19 20:52:00,
2013-11-19 16:02:00,42.0,27.0,-100.00,ENE,57,4.0,9.0,55,0.00,,,0.00,219.000000,,2013-11-19 21:02:00,
2013-11-19 16:43:00,41.0,27.0,-100.00,ENE,76,3.0,10.0,57,0.00,,,0.00,113.000000,,2013-11-19 21:43:00,
2013-11-19 16:54:00,41.0,27.0,-100.00,ENE,76,3.0,10.0,57,0.00,,,0.00,113.000000,,2013-11-19 21:54:00,
2013-11-19 17:03:00,41.0,27.0,-100.00,ENE,76,3.0,10.0,57,0.00,,,0.00,113.000000,,2013-11-19 22:03:00,
2013-11-19 17:43:00,41.0,28.0,-100.00,ENE,60,1.0,7.0,59,0.00,,,0.00,68.000000,,2013-11-19 22:43:00,
2013-11-19 17:53:00,41.0,28.0,-100.00,ENE,60,1.0,7.0,59,0.00,,,0.00,68.000000,,2013-11-19 22:53:00,
2013-11-19 18:02:00,41.0,28.0,-100.00,ENE,60,1.0,7.0,59,0.00,,,0.00,68.000000,,2013-11-19 23:02:00,
2013-11-19 18:43:00,38.0,26.0,-100.00,ESE,104,2.0,4.0,62,0.00,,,0.00,6.000000,,2013-11-19 23:43:00,
2013-11-19 18:52:00,38.0,26.0,-100.00,ESE,104,2.0,4.0,62,0.00,,,0.00,6.000000,,2013-11-19 23:52:00,
2013-11-19 19:02:00,38.0,26.0,-100.00,ESE,104,2.0,4.0,62,0.00,,,0.00,6.000000,,2013-11-20 00:02:00,
2013-11-19 19:42:00,37.0,27.0,-100.00,East,94,1.0,6.0,66,0.00,,,0.00,0.000000,,2013-11-20 00:42:00,
2013-11-19 19:52:00,37.0,27.0,-100.00,East,94,1.0,6.0,66,0.00,,,0.00,0.000000,,2013-11-20 00:52:00,
2013-11-19 20:01:00,37.0,27.0,-100.00,East,94,1.0,6.0,66,0.00,,,0.00,0.000000,,2013-11-20 01:01:00,
2013-11-19 20:42:00,35.0,26.0,-100.00,SE,125,1.0,5.0,68,0.00,,,0.00,0.000000,,2013-11-20 01:42:00,
2013-11-19 20:52:00,35.0,26.0,-100.00,SE,125,1.0,5.0,68,0.00,,,0.00,0.000000,,2013-11-20 01:52:00,
2013-11-19 21:01:00,35.0,26.0,-100.00,SE,125,1.0,5.0,68,0.00,,,0.00,0.000000,,2013-11-20 02:01:00,
2013-11-19 21:42:00,34.0,26.0,-100.00,East,96,2.0,7.0,71,0.00,,,0.00,0.000000,,2013-11-20 02:42:00,
2013-11-19 21:52:00,34.0,26.0,-100.00,East,96,2.0,7.0,71,0.00,,,0.00,0.000000,,2013-11-20 02:52:00,
2013-11-19 22:02:00,34.0,26.0,-100.00,East,96,2.0,7.0,71,0.00,,,0.00,0.000000,,2013-11-20 03:02:00,
2013-11-19 22:44:00,33.0,26.0,-100.00,East,101,1.0,6.0,75,0.00,,,0.00,0.000000,,2013-11-20 03:44:00,
2013-11-19 22:54:00,33.0,26.0,-100.00,East,101,1.0,6.0,75,0.00,,,0.00,0.000000,,2013-11-20 03:54:00,
2013-11-19 23:03:00,33.0,26.0,-100.00,East,101,1.0,6.0,75,0.00,,,0.00,0.000000,,2013-11-20 04:03:00,
2013-11-19 23:43:00,33.0,27.0,-100.00,ESE,119,2.0,6.0,77,0.00,,,0.00,0.000000,,2013-11-20 04:43:00,
2013-11-19 23:52:00,33.0,27.0,-100.00,ESE,119,2.0,6.0,77,0.00,,,0.00,0.000000,,2013-11-20 04:52:00,